Time;durP1;ratioP1;P1;durP2;ratioP2;P2;SDS_P1;SDS_P2;PMS_P1;PMS_P2;Temp;Humidity;BMP_temperature;BMP_pressure;BME280_temperature;BME280_humidity;BME280_pressure;Samples;Min_cycle;Max_cycle;Signal;HPM_P1;HPM_P2
2022/09/28 00:01:54;;;;;;;27.42;10.35;;;;;;;7.45;100.00;99256.72;5020210;28;20144;-83
2022/09/28 00:04:20;;;;;;;19.35;10.20;;;;;;;7.49;100.00;99261.75;5021181;28;20052;-83
2022/09/28 00:06:46;;;;;;;17.45;10.07;;;;;;;7.46;100.00;99259.31;5049099;28;20036;-84
2022/09/28 00:09:12;;;;;;;26.20;11.48;;;;;;;7.48;100.00;99254.56;5039069;28;20056;-84
2022/09/28 00:11:38;;;;;;;25.67;11.23;;;;;;;7.55;100.00;99252.97;5055391;28;20458;-84
2022/09/28 00:14:06;;;;;;;24.13;12.35;;;;;;;7.65;100.00;99257.59;5054456;28;20040;-84
2022/09/28 00:16:38;;;;;;;27.33;12.88;;;;;;;7.66;100.00;99251.16;5023304;28;20060;-84
2022/09/28 00:19:05;;;;;;;27.38;11.88;;;;;;;7.61;100.00;99245.25;5037064;28;20029;-84
2022/09/28 00:21:33;;;;;;;27.75;14.10;;;;;;;7.72;100.00;99245.09;5053080;28;20028;-83
2022/09/28 00:24:17;;;;;;;27.55;14.25;;;;;;;7.75;100.00;99242.09;5052769;28;20087;-84
2022/09/28 00:26:53;;;;;;;27.05;13.60;;;;;;;7.72;100.00;99236.94;5055842;28;20435;-84
2022/09/28 00:29:33;;;;;;;41.13;14.90;;;;;;;7.70;100.00;99247.97;5038480;28;20477;-84
2022/09/28 00:32:01;;;;;;;31.67;14.75;;;;;;;7.63;100.00;99245.97;5056914;28;20090;-84
2022/09/28 00:34:45;;;;;;;24.88;14.38;;;;;;;7.63;100.00;99240.53;5041071;28;20045;-84
2022/09/28 00:37:12;;;;;;;30.08;14.20;;;;;;;7.62;100.00;99236.94;5040152;28;20111;-84
2022/09/28 00:39:40;;;;;;;37.08;15.57;;;;;;;7.68;100.00;99244.53;5056028;28;20028;-83
2022/09/28 00:42:16;;;;;;;37.65;15.98;;;;;;;7.67;100.00;99239.22;5041024;28;20465;-84
2022/09/28 00:44:52;;;;;;;37.30;16.63;;;;;;;7.63;100.00;99246.84;5055603;28;20035;-83
2022/09/28 00:47:24;;;;;;;39.63;16.73;;;;;;;7.64;100.00;99248.56;5041453;28;20044;-83
2022/09/28 00:50:01;;;;;;;34.72;16.13;;;;;;;7.56;100.00;99245.69;5055870;28;20485;-83
2022/09/28 00:52:38;;;;;;;35.67;16.90;;;;;;;7.59;100.00;99245.41;5040047;28;20028;-83
2022/09/28 00:55:08;;;;;;;38.78;16.45;;;;;;;7.57;100.00;99241.09;5036960;28;20078;-83
2022/09/28 00:57:35;;;;;;;33.47;16.10;;;;;;;7.48;100.00;99238.22;5069740;28;20124;-84
2022/09/28 01:00:02;;;;;;;30.52;15.77;;;;;;;7.50;100.00;99240.81;5071622;28;20127;-85
2022/09/28 01:02:27;;;;;;;35.78;17.77;;;;;;;7.53;100.00;99243.25;5056639;28;20045;-85
2022/09/28 01:04:55;;;;;;;37.53;18.10;;;;;;;7.44;100.00;99223.16;5033471;28;20417;-84
2022/09/28 01:07:21;;;;;;;33.58;17.80;;;;;;;7.52;100.00;99233.34;5042970;28;20029;-84
2022/09/28 01:09:47;;;;;;;38.00;17.88;;;;;;;7.53;100.00;99230.50;5024276;28;20396;-84
2022/09/28 01:12:12;;;;;;;42.92;18.38;;;;;;;7.52;100.00;99226.03;5057138;28;20166;-84
2022/09/28 01:14:40;;;;;;;43.25;20.50;;;;;;;7.53;100.00;99221.47;5040403;28;20460;-84
2022/09/28 01:17:16;;;;;;;41.60;19.05;;;;;;;7.47;100.00;99211.13;5036307;28;20048;-83
2022/09/28 01:19:54;;;;;;;39.83;17.73;;;;;;;7.50;100.00;99214.44;5061627;28;20025;-84
2022/09/28 01:22:40;;;;;;;52.25;19.33;;;;;;;7.55;100.00;99211.28;5056421;28;20422;-84
2022/09/28 01:25:15;;;;;;;39.20;18.55;;;;;;;7.45;100.00;99205.81;5039164;28;20030;-84
2022/09/28 01:27:43;;;;;;;44.78;19.60;;;;;;;7.47;100.00;99209.25;5056576;28;20033;-84
2022/09/28 01:30:14;;;;;;;42.17;19.30;;;;;;;7.57;100.00;99213.88;5036864;28;20937;-84
2022/09/28 01:32:56;;;;;;;39.42;18.27;;;;;;;7.59;100.00;99204.56;5031294;28;20076;-85
2022/09/28 01:35:32;;;;;;;46.22;19.08;;;;;;;7.47;100.00;99203.81;5035097;28;20036;-84
2022/09/28 01:38:30;;;;;;;34.40;18.95;;;;;;;7.58;100.00;99213.72;5057212;28;20037;-85
2022/09/28 01:40:58;;;;;;;40.88;19.15;;;;;;;7.54;100.00;99206.81;5051349;28;20118;-84
2022/09/28 01:43:29;;;;;;;39.05;18.90;;;;;;;7.58;100.00;99221.03;5070258;28;20028;-85
2022/09/28 01:45:59;;;;;;;42.55;19.98;;;;;;;7.59;100.00;99209.13;5040775;28;20032;-84
2022/09/28 01:48:54;;;;;;;46.70;20.00;;;;;;;7.59;100.00;99218.19;5051315;28;20120;-84
2022/09/28 01:51:50;;;;;;;41.67;19.88;;;;;;;7.63;100.00;99219.59;5066835;28;20029;-84
2022/09/28 01:54:24;;;;;;;44.47;19.85;;;;;;;7.59;100.00;99217.28;5048448;28;20484;-84
2022/09/28 01:57:01;;;;;;;44.30;20.63;;;;;;;7.62;100.00;99223.31;5039242;28;20139;-84
2022/09/28 01:59:31;;;;;;;47.15;22.00;;;;;;;7.76;100.00;99219.31;5041623;28;20040;-84
2022/09/28 02:02:18;;;;;;;50.85;23.35;;;;;;;7.78;100.00;99225.47;5055216;28;20119;-84
2022/09/28 02:04:47;;;;;;;45.92;21.23;;;;;;;7.67;100.00;99225.63;5039470;28;20041;-84
2022/09/28 02:07:23;;;;;;;49.95;21.27;;;;;;;7.72;100.00;99223.31;5054481;28;20033;-84
2022/09/28 02:09:58;;;;;;;50.65;21.30;;;;;;;7.71;100.00;99217.00;5038846;28;20086;-84
2022/09/28 02:12:32;;;;;;;59.80;23.63;;;;;;;7.67;100.00;99214.72;5038483;28;20120;-84
2022/09/28 02:15:09;;;;;;;54.35;23.05;;;;;;;7.59;100.00;99218.19;5039021;28;20534;-84
2022/09/28 02:17:35;;;;;;;62.50;25.98;;;;;;;7.64;100.00;99225.91;5038778;28;20029;-85
2022/09/28 02:20:01;;;;;;;62.47;25.67;;;;;;;7.57;100.00;99222.03;5021585;28;20139;-84
2022/09/28 02:22:42;;;;;;;68.13;26.55;;;;;;;7.64;100.00;99221.34;5037472;28;20447;-84
2022/09/28 02:25:18;;;;;;;64.90;25.63;;;;;;;7.64;100.00;99220.44;5038198;28;20024;-84
2022/09/28 02:27:51;;;;;;;57.72;24.42;;;;;;;7.65;100.00;99233.94;5033113;28;20044;-83
2022/09/28 02:30:17;;;;;;;55.63;25.92;;;;;;;7.65;100.00;99222.19;5043519;28;20556;-84
2022/09/28 02:32:46;;;;;;;60.30;26.77;;;;;;;7.73;100.00;99225.91;5045878;28;20128;-84
2022/09/28 02:35:15;;;;;;;70.10;28.63;;;;;;;7.73;100.00;99222.31;5050113;28;20028;-84
2022/09/28 02:37:41;;;;;;;64.65;28.98;;;;;;;7.67;100.00;99217.44;5055430;28;20021;-83
2022/09/28 02:40:19;;;;;;;62.08;28.60;;;;;;;7.70;100.00;99220.72;5035904;28;20501;-85
2022/09/28 02:42:47;;;;;;;74.38;31.15;;;;;;;7.80;100.00;99225.31;5032065;28;20037;-85
2022/09/28 02:45:29;;;;;;;74.80;33.83;;;;;;;7.75;100.00;99222.19;5053453;28;20039;-85
2022/09/28 02:48:14;;;;;;;77.57;30.83;;;;;;;7.80;100.00;99223.44;5036898;28;20029;-85
2022/09/28 02:50:43;;;;;;;81.15;33.97;;;;;;;7.86;100.00;99230.22;5039288;28;20032;-85
2022/09/28 02:53:17;;;;;;;68.85;32.35;;;;;;;7.79;100.00;99229.03;5056089;28;20041;-85
2022/09/28 02:55:52;;;;;;;83.97;33.20;;;;;;;7.87;100.00;99226.44;5023857;28;20091;-85
2022/09/28 02:58:32;;;;;;;75.53;32.65;;;;;;;7.79;100.00;99209.97;5035637;28;20068;-84
2022/09/28 03:01:38;;;;;;;79.95;33.13;;;;;;;7.94;100.00;99234.94;5042545;28;20124;-84
2022/09/28 03:04:30;;;;;;;81.95;32.88;;;;;;;7.76;100.00;99229.34;5026682;28;20044;-84
2022/09/28 03:07:05;;;;;;;74.97;31.65;;;;;;;7.83;100.00;99228.63;5041542;28;20128;-85
2022/09/28 03:09:38;;;;;;;73.47;28.60;;;;;;;7.78;100.00;99222.75;5040605;28;20037;-83
2022/09/28 03:12:08;;;;;;;;;;;;;;;7.81;100.00;99229.78;5051679;28;20036;-85
2022/09/28 03:14:34;;;;;;;72.13;29.83;;;;;;;7.84;100.00;99230.34;5054813;28;19917;-85
2022/09/28 03:16:59;;;;;;;68.70;28.77;;;;;;;7.77;100.00;99231.06;5037189;28;20092;-85
2022/09/28 03:19:32;;;;;;;62.75;28.13;;;;;;;7.76;100.00;99222.03;5040170;28;20040;-85
2022/09/28 03:21:58;;;;;;;56.07;26.23;;;;;;;7.70;100.00;99230.78;5056998;28;20037;-85
2022/09/28 03:24:24;;;;;;;60.90;27.17;;;;;;;7.72;100.00;99226.03;5048926;28;20484;-84
2022/09/28 03:26:49;;;;;;;62.05;28.00;;;;;;;7.73;100.00;99227.78;5051846;28;20033;-85
2022/09/28 03:29:15;;;;;;;60.35;24.63;;;;;;;7.65;100.00;99223.03;5044089;28;20036;-85
2022/09/28 03:31:40;;;;;;;58.00;25.00;;;;;;;7.54;100.00;99201.38;5065008;28;20033;-85
2022/09/28 03:34:05;;;;;;;51.97;24.38;;;;;;;7.70;100.00;99222.59;5054069;28;20393;-84
2022/09/28 03:36:31;;;;;;;51.58;24.10;;;;;;;7.72;100.00;99226.91;5063063;28;20038;-85
2022/09/28 03:38:58;;;;;;;53.80;22.77;;;;;;;7.57;100.00;99209.28;5036273;28;20073;-82
2022/09/28 03:41:24;;;;;;;63.53;25.13;;;;;;;7.76;100.00;99229.34;5033649;28;20100;-84
2022/09/28 03:43:49;;;;;;;56.08;24.42;;;;;;;7.53;100.00;99197.81;5035159;28;20048;-83
2022/09/28 03:46:15;;;;;;;54.67;23.05;;;;;;;7.65;100.00;99224.91;5051931;28;20041;-83
2022/09/28 03:48:40;;;;;;;54.85;24.05;;;;;;;7.68;100.00;99222.75;5044468;28;20055;-85
2022/09/28 03:51:08;;;;;;;57.53;22.25;;;;;;;7.59;100.00;99223.63;5022385;28;20090;-85
2022/09/28 03:53:35;;;;;;;51.35;22.30;;;;;;;7.59;100.00;99220.03;5038637;28;20120;-84
2022/09/28 03:56:05;;;;;;;50.78;21.40;;;;;;;7.62;100.00;99230.63;5039636;28;20052;-84
2022/09/28 03:58:31;;;;;;;51.28;21.38;;;;;;;7.68;100.00;99232.78;5055484;28;20028;-85
2022/09/28 04:01:05;;;;;;;43.80;19.50;;;;;;;7.69;100.00;99226.31;5053895;28;20049;-84
2022/09/28 04:03:31;;;;;;;47.22;20.77;;;;;;;7.66;100.00;99232.09;5037859;28;20039;-85
2022/09/28 04:05:57;;;;;;;39.38;17.63;;;;;;;7.61;100.00;99232.50;5041273;28;20043;-85
2022/09/28 04:08:23;;;;;;;46.83;18.85;;;;;;;7.76;100.00;99222.03;5006932;28;20021;-85
2022/09/28 04:10:48;;;;;;;41.53;17.67;;;;;;;7.74;100.00;99232.22;5021995;28;20427;-84
2022/09/28 04:13:14;;;;;;;48.42;19.63;;;;;;;7.61;100.00;99204.38;5022302;28;20433;-85
2022/09/28 04:15:40;;;;;;;34.85;15.98;;;;;;;7.52;100.00;99203.41;5033627;28;20111;-84
2022/09/28 04:18:10;;;;;;;32.92;16.42;;;;;;;7.74;100.00;99243.13;5006778;28;20038;-85
2022/09/28 04:20:36;;;;;;;37.47;16.77;;;;;;;7.68;100.00;99244.53;5056020;28;20029;-84
2022/09/28 04:23:01;;;;;;;33.67;16.10;;;;;;;7.57;100.00;99244.66;5018874;28;20043;-84
2022/09/28 04:25:27;;;;;;;38.30;15.57;;;;;;;7.47;100.00;99241.94;5024040;28;20039;-85
2022/09/28 04:30:36;;;;;;;27.02;14.73;;;;;;;7.59;100.00;99245.41;5061888;28;20523;-88
2022/09/28 04:33:02;;;;;;;30.60;14.68;;;;;;;7.58;100.00;99249.13;5008414;28;20029;-84
2022/09/28 04:35:27;;;;;;;36.53;14.35;;;;;;;7.53;100.00;99235.09;5050579;28;20041;-84
2022/09/28 04:37:53;;;;;;;32.95;15.52;;;;;;;7.60;100.00;99235.38;5047115;28;20059;-85
2022/09/28 04:40:18;;;;;;;31.50;15.00;;;;;;;7.54;100.00;99237.66;5043278;28;20396;-84
2022/09/28 04:42:44;;;;;;;34.30;13.88;;;;;;;7.49;100.00;99236.34;5025602;28;20045;-86
2022/09/28 04:45:09;;;;;;;31.00;13.50;;;;;;;7.53;100.00;99244.09;5044070;28;20025;-85
2022/09/28 04:47:35;;;;;;;31.85;12.35;;;;;;;7.43;100.00;99232.34;5075329;28;20037;-85
2022/09/28 04:50:00;;;;;;;33.70;13.40;;;;;;;7.42;100.00;99233.34;5025069;28;20033;-84
2022/09/28 04:52:26;;;;;;;27.75;13.25;;;;;;;7.44;100.00;99236.78;5007754;28;20044;-85
2022/09/28 04:54:51;;;;;;;25.20;13.52;;;;;;;7.32;100.00;99232.47;5040467;28;20603;-86
2022/09/28 04:57:16;;;;;;;29.17;13.73;;;;;;;7.26;100.00;99228.44;5033379;28;20041;-86
2022/09/28 04:59:42;;;;;;;34.05;14.95;;;;;;;7.32;100.00;99238.78;5055099;28;20496;-85
2022/09/28 05:02:07;;;;;;;29.95;13.85;;;;;;;7.24;100.00;99240.47;5041769;28;20102;-86
2022/09/28 05:04:33;;;;;;;33.58;14.30;;;;;;;7.23;100.00;99236.91;5038420;28;20053;-86
2022/09/28 05:06:58;;;;;;;33.65;14.95;;;;;;;7.10;100.00;99219.97;5021714;28;20124;-86
2022/09/28 05:09:24;;;;;;;30.30;15.05;;;;;;;7.21;100.00;99235.31;5021449;28;20115;-86
2022/09/28 05:11:51;;;;;;;37.60;14.90;;;;;;;7.17;100.00;99235.59;5023097;28;20041;-86
2022/09/28 05:14:23;;;;;;;33.55;16.48;;;;;;;7.12;100.00;99237.88;5043889;28;20037;-86
2022/09/28 05:16:49;;;;;;;42.90;17.42;;;;;;;7.13;100.00;99233.28;5039383;28;20029;-86
2022/09/28 05:19:14;;;;;;;37.10;15.68;;;;;;;7.01;100.00;99221.66;5057075;28;20041;-86
2022/09/28 05:21:43;;;;;;;42.17;17.48;;;;;;;6.99;100.00;99226.41;5015869;28;20041;-86
2022/09/28 05:24:10;;;;;;;38.65;18.33;;;;;;;7.07;100.00;99240.16;5041306;28;20048;-86
2022/09/28 05:26:35;;;;;;;42.90;18.55;;;;;;;7.01;100.00;99246.16;5006261;28;20036;-86
2022/09/28 05:29:01;;;;;;;45.55;17.25;;;;;;;6.96;100.00;99237.56;5037897;28;20119;-87
2022/09/28 05:31:26;;;;;;;40.90;19.42;;;;;;;7.07;100.00;99259.22;5011307;28;20032;-87
2022/09/28 05:33:52;;;;;;;42.95;18.75;;;;;;;7.07;100.00;99252.91;5027716;28;20060;-86
2022/09/28 05:36:18;;;;;;;44.33;19.65;;;;;;;7.01;100.00;99250.75;5055554;28;20102;-87
2022/09/28 05:38:44;;;;;;;51.53;18.63;;;;;;;6.94;100.00;99242.28;5038705;28;20123;-86
2022/09/28 05:41:10;;;;;;;50.15;19.50;;;;;;;6.94;100.00;99239.56;5039648;28;20033;-86
2022/09/28 05:43:37;;;;;;;43.47;18.95;;;;;;;6.99;100.00;99259.91;5042054;28;20043;-86
2022/09/28 05:46:03;;;;;;;43.55;18.48;;;;;;;7.02;100.00;99253.31;5040826;28;20022;-86
2022/09/28 05:48:29;;;;;;;41.20;19.23;;;;;;;6.97;100.00;99263.78;5040529;28;20033;-86
2022/09/28 05:50:55;;;;;;;46.85;19.35;;;;;;;7.04;100.00;99259.47;5055659;28;20104;-86
2022/09/28 05:53:20;;;;;;;47.53;20.77;;;;;;;7.02;100.00;99260.59;5037027;28;20029;-86
2022/09/28 05:55:47;;;;;;;50.58;21.30;;;;;;;6.98;100.00;99260.03;5041988;28;20056;-88
2022/09/28 05:58:12;;;;;;;56.70;20.85;;;;;;;6.98;100.00;99258.19;5055033;28;20033;-86
2022/09/28 06:00:38;;;;;;;50.58;21.02;;;;;;;7.07;100.00;99261.09;5054616;28;20092;-86
2022/09/28 06:03:06;;;;;;;47.88;20.92;;;;;;;7.22;100.00;99269.72;5058300;28;20059;-86
2022/09/28 06:05:35;;;;;;;57.10;22.05;;;;;;;7.24;100.00;99268.56;5035288;28;20025;-86
2022/09/28 06:08:01;;;;;;;44.78;19.38;;;;;;;7.25;100.00;99274.88;5038422;28;20025;-86
2022/09/28 06:10:27;;;;;;;49.53;20.83;;;;;;;7.26;100.00;99271.13;5035522;28;20388;-85
2022/09/28 06:12:57;;;;;;;39.63;19.80;;;;;;;7.30;100.00;99278.03;5052390;28;20040;-84
2022/09/28 06:15:24;;;;;;;44.95;20.70;;;;;;;7.36;100.00;99285.63;5056446;28;20037;-85
2022/09/28 06:18:04;;;;;;;50.92;21.30;;;;;;;7.37;100.00;99290.09;5040544;28;20036;-86
2022/09/28 06:20:32;;;;;;;47.20;19.38;;;;;;;7.35;100.00;99283.94;5052882;28;20469;-87
2022/09/28 06:22:58;;;;;;;48.92;20.92;;;;;;;7.27;100.00;99295.50;5039789;28;20447;-86
2022/09/28 06:25:26;;;;;;;43.58;21.27;;;;;;;7.48;100.00;99289.97;5024403;28;20029;-86
2022/09/28 06:28:09;;;;;;;42.65;19.40;;;;;;;7.47;100.00;99296.41;5058238;28;20075;-86
2022/09/28 06:30:37;;;;;;;39.85;19.33;;;;;;;7.50;100.00;99292.56;5059095;28;20028;-85
2022/09/28 06:33:05;;;;;;;39.97;17.58;;;;;;;7.53;100.00;99295.84;5041835;28;20174;-86
2022/09/28 06:35:31;;;;;;;46.47;18.45;;;;;;;7.58;100.00;99300.88;5034658;28;20068;-87
2022/09/28 06:37:58;;;;;;;39.55;18.42;;;;;;;7.53;100.00;99300.44;5027113;28;20032;-85
2022/09/28 06:40:24;;;;;;;41.78;19.83;;;;;;;7.68;100.00;99309.06;5042643;28;20396;-86
2022/09/28 06:43:11;;;;;;;48.65;20.27;;;;;;;7.66;100.00;99308.34;5038856;28;20043;-85
2022/09/28 06:45:37;;;;;;;44.78;18.35;;;;;;;7.56;100.00;99311.06;5057845;28;20029;-85
2022/09/28 06:48:04;;;;;;;37.00;17.67;;;;;;;7.49;100.00;99313.47;5040558;28;20039;-85
2022/09/28 06:50:33;;;;;;;44.92;18.58;;;;;;;7.43;100.00;99307.72;5042381;28;20024;-85
2022/09/28 06:53:00;;;;;;;48.03;19.70;;;;;;;7.49;100.00;99320.78;5042769;28;20472;-86
2022/09/28 06:55:26;;;;;;;39.55;19.52;;;;;;;7.57;100.00;99311.91;5057279;28;20029;-85
2022/09/28 06:58:06;;;;;;;43.63;18.95;;;;;;;7.54;100.00;99319.38;5019740;28;20554;-85
2022/09/28 07:00:35;;;;;;;43.95;20.13;;;;;;;7.63;100.00;99316.81;5023499;28;20085;-85
2022/09/28 07:03:02;;;;;;;43.30;21.13;;;;;;;7.79;100.00;99313.50;5049666;28;20024;-85
2022/09/28 07:05:28;;;;;;;49.20;22.00;;;;;;;7.90;100.00;99313.38;5058543;28;20116;-85
2022/09/28 07:07:57;;;;;;;48.88;21.33;;;;;;;7.95;100.00;99321.13;5026080;28;20029;-85
2022/09/28 07:10:24;;;;;;;51.85;21.60;;;;;;;8.05;100.00;99321.97;5062148;28;20029;-87
2022/09/28 07:12:51;;;;;;;47.60;21.08;;;;;;;8.07;100.00;99320.84;5025660;28;20105;-85
2022/09/28 07:15:17;;;;;;;50.70;23.05;;;;;;;8.06;100.00;99331.88;5054361;28;20435;-85
2022/09/28 07:17:42;;;;;;;48.47;22.00;;;;;;;8.11;100.00;99321.41;5038877;28;20116;-85
2022/09/28 07:20:08;;;;;;;56.35;23.10;;;;;;;8.40;100.00;99317.81;5040637;28;20463;-84
2022/09/28 07:22:33;;;;;;;44.58;19.98;;;;;;;8.36;100.00;99322.69;5052084;28;20044;-84
2022/09/28 07:24:59;;;;;;;43.97;20.00;;;;;;;8.36;100.00;99325.44;5039931;28;20033;-85
2022/09/28 07:27:25;;;;;;;44.47;20.83;;;;;;;8.58;100.00;99332.44;5041862;28;20040;-85
2022/09/28 07:29:52;;;;;;;41.70;20.33;;;;;;;8.50;100.00;99329.59;5057054;28;20118;-83
2022/09/28 07:32:19;;;;;;;48.17;23.38;;;;;;;8.48;100.00;99311.63;5040563;28;20123;-85
2022/09/28 07:34:44;;;;;;;54.55;22.35;;;;;;;8.86;100.00;99318.88;5058626;28;20140;-85
2022/09/28 07:37:11;;;;;;;46.63;21.08;;;;;;;9.01;100.00;99341.09;5058735;28;20122;-86
2022/09/28 07:42:28;;;;;;;37.15;18.52;;;;;;;9.08;100.00;99346.81;5062356;28;20035;-87
2022/09/28 07:44:57;;;;;;;46.25;19.40;;;;;;;9.48;100.00;99340.19;5048288;28;20025;-87
2022/09/28 07:47:25;;;;;;;38.60;18.92;;;;;;;9.26;100.00;99355.06;5030873;28;20044;-87
2022/09/28 07:49:55;;;;;;;36.78;17.88;;;;;;;9.45;100.00;99352.25;5047252;28;20033;-86
2022/09/28 07:52:25;;;;;;;28.50;14.15;;;;;;;9.48;100.00;99360.16;5045145;28;20029;-85
2022/09/28 07:54:57;;;;;;;31.30;17.27;;;;;;;9.90;100.00;99361.47;5044839;28;20041;-86
2022/09/28 07:57:23;;;;;;;34.23;15.07;;;;;;;9.83;100.00;99366.72;5061571;28;20033;-85
2022/09/28 07:59:49;;;;;;;29.15;14.75;;;;;;;10.28;100.00;99356.72;5045833;28;20029;-85
2022/09/28 08:02:19;;;;;;;29.13;15.30;;;;;;;10.15;100.00;99369.94;5055847;28;20034;-85
2022/09/28 08:04:49;;;;;;;30.55;13.25;;;;;;;10.33;100.00;99373.59;5054078;28;20053;-84
2022/09/28 08:07:16;;;;;;;25.42;15.00;;;;;;;10.63;100.00;99374.19;5044764;28;20024;-85
2022/09/28 08:09:42;;;;;;;23.58;13.20;;;;;;;10.90;100.00;99366.84;5027955;28;20097;-85
2022/09/28 08:12:08;;;;;;;24.55;11.75;;;;;;;11.12;100.00;99387.38;5039977;28;20041;-85
2022/09/28 08:14:33;;;;;;;39.22;12.75;;;;;;;11.03;100.00;99373.63;5026034;28;20032;-84
2022/09/28 08:17:00;;;;;;;23.95;11.23;;;;;;;11.35;100.00;99394.00;5037704;28;20098;-85
2022/09/28 08:19:26;;;;;;;22.13;10.57;;;;;;;11.60;100.00;99396.88;5025211;28;20041;-84
2022/09/28 08:21:51;;;;;;;22.63;9.05;;;;;;;11.20;100.00;99382.78;5043411;28;20037;-84
2022/09/28 08:24:17;;;;;;;15.32;8.68;;;;;;;11.46;100.00;99395.63;5045075;28;20060;-84
2022/09/28 08:26:43;;;;;;;17.42;9.45;;;;;;;11.82;100.00;99392.66;5045761;28;20068;-85
2022/09/28 08:29:10;;;;;;;18.02;8.80;;;;;;;12.19;100.00;99396.94;5046579;28;20067;-85
2022/09/28 08:31:35;;;;;;;12.63;7.97;;;;;;;12.44;100.00;99392.31;5027171;28;20063;-85
2022/09/28 08:34:01;;;;;;;14.80;7.28;;;;;;;12.64;100.00;99395.63;5024868;28;20373;-84
2022/09/28 08:36:27;;;;;;;12.90;6.82;;;;;;;12.77;100.00;99386.00;5047037;28;20033;-85
2022/09/28 08:38:53;;;;;;;13.68;7.15;;;;;;;12.68;100.00;99396.97;5065368;28;20037;-84
2022/09/28 08:41:47;;;;;;;11.48;7.30;;;;;;;13.18;100.00;99391.44;5042603;28;20033;-84
2022/09/28 08:44:23;;;;;;;9.35;6.53;;;;;;;12.47;100.00;99397.47;5041424;28;20136;-85
2022/09/28 08:46:55;;;;;;;11.68;7.05;;;;;;;12.73;100.00;99395.63;5043841;28;20029;-84
2022/09/28 08:49:41;;;;;;;7.97;4.68;;;;;;;11.94;100.00;99401.50;5059319;28;20547;-85
2022/09/28 08:52:22;;;;;;;14.95;5.82;;;;;;;11.61;100.00;99406.81;5041074;28;20084;-84
2022/09/28 08:54:57;;;;;;;10.60;5.70;;;;;;;11.44;100.00;99403.13;5047920;28;20037;-84
2022/09/28 08:57:45;;;;;;;16.17;5.68;;;;;;;12.29;100.00;99410.50;5063363;28;20044;-84
2022/09/28 09:00:31;;;;;;;9.25;5.30;;;;;;;12.91;100.00;99420.16;5057396;28;20044;-85
2022/09/28 09:02:56;;;;;;;10.85;5.55;;;;;;;13.71;100.00;99406.44;5028288;28;20480;-84
2022/09/28 09:05:38;;;;;;;8.70;5.07;;;;;;;14.06;100.00;99415.22;5042297;28;20068;-84
2022/09/28 09:08:26;;;;;;;10.68;4.97;;;;;;;13.65;100.00;99423.66;5057767;28;20059;-85
2022/09/28 09:11:05;;;;;;;15.07;5.18;;;;;;;13.57;100.00;99410.78;5044305;28;20036;-84
2022/09/28 09:13:31;;;;;;;6.47;4.47;;;;;;;14.06;100.00;99419.88;5064494;28;20392;-84
2022/09/28 09:16:19;;;;;;;8.43;4.43;;;;;;;14.65;100.00;99414.72;5064816;28;20045;-84
2022/09/28 09:18:54;;;;;;;7.20;4.70;;;;;;;15.32;100.00;99415.00;5064165;28;20041;-84
2022/09/28 09:21:49;;;;;;;12.57;4.80;;;;;;;14.89;100.00;99424.69;5059585;28;20041;-84
2022/09/28 09:24:23;;;;;;;12.40;4.38;;;;;;;14.23;100.00;99421.53;4974722;28;20042;-86
2022/09/28 09:27:02;;;;;;;14.15;4.35;;;;;;;13.51;100.00;99417.00;5043890;28;20025;-84
2022/09/28 09:29:32;;;;;;;14.13;4.55;;;;;;;12.93;100.00;99418.09;5041544;28;20033;-83
2022/09/28 09:32:29;;;;;;;9.30;4.15;;;;;;;13.24;100.00;99418.22;5059110;28;20044;-84
2022/09/28 09:35:00;;;;;;;6.40;4.05;;;;;;;13.93;100.00;99425.97;5061103;28;20384;-84
2022/09/28 09:37:51;;;;;;;10.52;4.30;;;;;;;13.84;100.00;99430.66;5060625;28;20043;-83
2022/09/28 09:40:40;;;;;;;7.65;4.32;;;;;;;14.37;100.00;99430.91;5042076;28;20037;-84
2022/09/28 09:43:34;;;;;;;10.73;4.50;;;;;;;14.12;100.00;99439.28;5060237;28;20028;-84
2022/09/28 09:46:02;;;;;;;7.30;4.85;;;;;;;13.85;100.00;99439.75;5059378;28;20040;-84
2022/09/28 09:48:47;;;;;;;6.90;4.50;;;;;;;13.36;100.00;99438.00;5059259;28;20042;-84
2022/09/28 09:51:47;;;;;;;11.30;4.60;;;;;;;13.52;100.00;99446.22;5059007;28;20496;-83
2022/09/28 09:54:21;;;;;;;6.63;3.72;;;;;;;13.39;100.00;99430.25;5058143;28;20480;-83
2022/09/28 09:57:11;;;;;;;9.18;3.85;;;;;;;13.54;100.00;99433.16;5042681;28;20090;-83
2022/09/28 09:59:40;;;;;;;6.10;3.67;;;;;;;13.33;100.00;99443.84;5059345;28;20033;-83
2022/09/28 10:02:21;;;;;;;7.13;4.57;;;;;;;13.40;100.00;99431.97;5058177;28;20084;-83
2022/09/28 10:04:51;;;;;;;9.82;4.30;;;;;;;12.98;100.00;99429.44;5043189;28;20104;-84
2022/09/28 10:07:24;;;;;;;10.85;4.30;;;;;;;12.88;100.00;99433.19;5058796;28;20116;-84
2022/09/28 10:09:54;;;;;;;8.20;4.30;;;;;;;12.84;100.00;99445.56;5060259;28;20025;-83
2022/09/28 10:12:22;;;;;;;10.82;4.40;;;;;;;13.19;100.00;99429.75;5058757;28;20033;-83
2022/09/28 10:14:48;;;;;;;9.10;4.35;;;;;;;13.57;100.00;99432.78;5059620;28;20476;-84
2022/09/28 10:17:18;;;;;;;5.90;3.05;;;;;;;14.00;100.00;99428.84;5055450;28;20034;-84
2022/09/28 10:19:44;;;;;;;8.50;3.13;;;;;;;14.40;100.00;99433.28;5040777;28;20391;-84
2022/09/28 10:22:16;;;;;;;7.53;3.08;;;;;;;14.84;100.00;99424.41;5057652;28;20056;-84
2022/09/28 10:24:48;;;;;;;4.60;2.60;;;;;;;14.82;100.00;99431.13;5060127;28;20099;-84
2022/09/28 10:27:20;;;;;;;3.28;2.40;;;;;;;15.40;100.00;99432.31;5059666;28;20104;-85
2022/09/28 10:30:00;;;;;;;6.57;2.88;;;;;;;15.41;100.00;99428.53;5059290;28;20499;-84
2022/09/28 10:32:36;;;;;;;9.30;2.90;;;;;;;14.27;100.00;99431.13;5057817;28;20093;-84
2022/09/28 10:35:17;;;;;;;6.13;2.83;;;;;;;14.51;100.00;99430.13;5058328;28;20024;-85
2022/09/28 10:37:58;;;;;;;9.80;3.28;;;;;;;14.52;100.00;99429.06;5040912;28;20484;-85
2022/09/28 10:40:36;;;;;;;6.45;3.10;;;;;;;14.24;100.00;99431.47;5058662;28;20037;-84
2022/09/28 10:43:06;;;;;;;5.68;2.70;;;;;;;14.47;100.00;99433.41;5040807;28;20029;-84
2022/09/28 10:45:35;;;;;;;7.95;2.80;;;;;;;14.07;100.00;99436.22;5057329;28;20383;-85
2022/09/28 10:48:11;;;;;;;2.78;2.28;;;;;;;13.54;100.00;99444.16;5059372;28;20065;-84
2022/09/28 10:50:39;;;;;;;7.50;2.60;;;;;;;13.72;100.00;99438.41;5041454;28;20025;-84
2022/09/28 10:53:18;;;;;;;5.05;2.80;;;;;;;13.46;100.00;99435.06;5059477;28;20071;-84
2022/09/28 10:55:58;;;;;;;6.10;2.65;;;;;;;13.40;100.00;99433.88;5058634;28;20021;-84
2022/09/28 10:58:33;;;;;;;7.43;2.63;;;;;;;13.76;100.00;99433.44;5059381;28;20064;-84
2022/09/28 11:01:01;;;;;;;4.30;3.17;;;;;;;13.73;100.00;99439.28;5054166;28;20033;-84
2022/09/28 11:03:28;;;;;;;8.25;2.70;;;;;;;13.51;100.00;99438.13;5041464;28;20476;-84
2022/09/28 11:06:04;;;;;;;6.10;2.33;;;;;;;13.30;100.00;99433.16;5042431;28;20106;-84
2022/09/28 11:08:50;;;;;;;4.90;2.55;;;;;;;13.49;100.00;99441.06;5041864;28;20511;-84
2022/09/28 11:11:20;;;;;;;5.97;2.28;;;;;;;13.93;100.00;99439.72;5056752;28;20052;-84
2022/09/28 11:13:52;;;;;;;6.97;2.05;;;;;;;14.47;100.00;99444.44;5027352;28;20044;-83
2022/09/28 11:16:29;;;;;;;11.57;2.23;;;;;;;14.27;100.00;99442.13;5043589;28;20411;-83
2022/09/28 11:19:24;;;;;;;4.80;2.25;;;;;;;14.38;100.00;99442.75;5039881;28;20103;-84
2022/09/28 11:21:50;;;;;;;6.40;1.67;;;;;;;14.89;100.00;99441.22;5056512;28;20432;-84
2022/09/28 11:24:22;;;;;;;8.13;1.90;;;;;;;14.98;100.00;99438.41;5043047;28;20055;-84
2022/09/28 11:26:55;;;;;;;3.38;1.90;;;;;;;15.17;100.00;99435.13;5042477;28;20102;-83
2022/09/28 11:29:34;;;;;;;4.80;1.80;;;;;;;14.74;100.00;99429.31;5059638;28;20033;-84
2022/09/28 11:32:03;;;;;;;7.72;2.00;;;;;;;14.58;100.00;99426.66;5042187;28;20039;-84
2022/09/28 11:34:36;;;;;;;5.35;1.70;;;;;;;14.77;100.00;99439.09;5042896;28;20051;-84
2022/09/28 11:37:07;;;;;;;11.15;1.88;;;;;;;15.01;100.00;99435.28;5043029;28;20033;-84
2022/09/28 11:39:52;;;;;;;8.38;2.00;;;;;;;15.02;100.00;99426.84;5043747;28;20029;-84
2022/09/28 11:42:20;;;;;;;5.25;1.80;;;;;;;15.13;100.00;99432.94;5058286;28;20025;-83
2022/09/28 11:44:59;;;;;;;5.68;2.10;;;;;;;14.44;100.00;99431.03;5057811;28;20484;-84